createdAt,value
2022-09-10T00:02:10.362Z,9.20
2022-09-10T00:04:37.102Z,10.32
2022-09-10T00:07:03.983Z,10.83
2022-09-10T00:09:30.839Z,11.95
2022-09-10T00:11:58.167Z,11.35
2022-09-10T00:14:25.200Z,15.38
2022-09-10T00:16:52.218Z,9.68
2022-09-10T00:19:19.532Z,12.77
2022-09-10T00:21:46.957Z,16.73
2022-09-10T00:24:14.147Z,17.13
2022-09-10T00:26:41.435Z,10.60
2022-09-10T00:29:11.543Z,17.98
2022-09-10T00:31:39.852Z,15.00
2022-09-10T00:34:09.020Z,21.58
2022-09-10T00:36:42.020Z,16.85
2022-09-10T00:39:20.234Z,18.90
2022-09-10T00:41:48.687Z,13.50
2022-09-10T00:44:40.726Z,18.87
2022-09-10T00:47:12.897Z,16.02
2022-09-10T00:49:46.515Z,16.77
2022-09-10T00:52:14.001Z,15.38
2022-09-10T00:54:44.579Z,15.57
2022-09-10T00:57:17.071Z,18.17
2022-09-10T00:59:50.021Z,13.05
2022-09-10T01:02:16.948Z,15.60
2022-09-10T01:04:44.608Z,11.85
2022-09-10T01:07:13.625Z,15.10
2022-09-10T01:09:40.802Z,17.87
2022-09-10T01:12:34.318Z,14.60
2022-09-10T01:15:10.197Z,13.82
2022-09-10T01:17:49.483Z,16.60
2022-09-10T01:20:29.087Z,16.45
2022-09-10T01:23:04.260Z,14.30
2022-09-10T01:25:53.990Z,13.15
2022-09-10T01:28:35.961Z,13.68
2022-09-10T01:31:26.269Z,12.27
2022-09-10T01:34:05.222Z,14.63
2022-09-10T01:36:38.827Z,13.70
2022-09-10T01:39:06.084Z,18.67
2022-09-10T01:41:33.150Z,16.63
2022-09-10T01:44:11.589Z,15.10
2022-09-10T01:46:55.003Z,19.27
2022-09-10T01:49:38.589Z,16.63
2022-09-10T01:52:37.134Z,19.65
2022-09-10T01:55:33.040Z,22.58
2022-09-10T01:58:26.461Z,17.30
2022-09-10T02:01:27.988Z,17.95
2022-09-10T02:04:02.955Z,18.20
2022-09-10T02:06:33.604Z,17.27
2022-09-10T02:09:01.851Z,21.37
2022-09-10T02:11:29.447Z,21.42
2022-09-10T02:13:59.851Z,19.80
2022-09-10T02:16:58.773Z,24.45
2022-09-10T02:19:27.225Z,19.25
2022-09-10T02:21:56.797Z,19.93
2022-09-10T02:24:24.520Z,22.98
2022-09-10T02:26:51.626Z,19.67
2022-09-10T02:29:19.407Z,20.88
2022-09-10T02:31:47.427Z,21.40
2022-09-10T02:34:16.030Z,16.33
2022-09-10T02:36:45.690Z,20.65
2022-09-10T02:39:13.958Z,18.42
2022-09-10T02:41:41.504Z,17.98
2022-09-10T02:44:08.782Z,19.08
2022-09-10T02:46:36.871Z,21.53
2022-09-10T02:49:03.602Z,22.95
2022-09-10T02:51:34.280Z,23.67
2022-09-10T02:54:01.451Z,21.60
2022-09-10T02:56:28.428Z,24.48
2022-09-10T02:58:55.170Z,19.10
2022-09-10T03:01:23.160Z,20.50
2022-09-10T03:03:58.317Z,20.60
2022-09-10T03:06:26.679Z,21.83
2022-09-10T03:08:57.525Z,21.30
2022-09-10T03:11:27.429Z,20.43
2022-09-10T03:13:55.025Z,21.00
2022-09-10T03:16:24.215Z,25.52
2022-09-10T03:18:52.159Z,22.05
2022-09-10T03:21:21.338Z,24.75
2022-09-10T03:23:50.119Z,23.30
2022-09-10T03:26:23.748Z,22.45
2022-09-10T03:28:51.425Z,20.25
2022-09-10T03:31:20.125Z,18.95
2022-09-10T03:33:49.351Z,19.60
2022-09-10T03:36:18.064Z,18.97
2022-09-10T03:38:47.630Z,21.85
2022-09-10T03:41:15.149Z,19.92
2022-09-10T03:43:42.224Z,18.42
2022-09-10T03:46:12.074Z,22.92
2022-09-10T03:48:43.159Z,19.27
2022-09-10T03:51:10.993Z,18.75
2022-09-10T03:53:38.947Z,19.15
2022-09-10T03:56:07.280Z,21.83
2022-09-10T03:58:35.893Z,20.27
2022-09-10T04:01:04.037Z,21.23
2022-09-10T04:03:33.751Z,22.23
2022-09-10T04:06:00.688Z,22.52
2022-09-10T04:08:35.094Z,21.83
2022-09-10T04:11:03.056Z,21.33
2022-09-10T04:13:31.757Z,17.67
2022-09-10T04:16:02.613Z,17.98
2022-09-10T04:18:34.155Z,15.48
2022-09-10T04:21:02.273Z,16.83
2022-09-10T04:23:29.760Z,16.10
2022-09-10T04:25:57.135Z,17.33
2022-09-10T04:28:24.770Z,13.75
2022-09-10T04:30:52.137Z,16.15
2022-09-10T04:33:21.102Z,15.45
2022-09-10T04:35:48.061Z,16.20
2022-09-10T04:38:18.231Z,15.33
2022-09-10T04:40:47.662Z,15.65
2022-09-10T04:43:15.857Z,16.20
2022-09-10T04:45:43.801Z,16.45
2022-09-10T04:48:10.820Z,16.70
2022-09-10T04:50:53.989Z,18.40
2022-09-10T04:53:27.978Z,15.75
2022-09-10T04:55:57.260Z,19.98
2022-09-10T04:58:24.016Z,20.80
2022-09-10T05:00:51.251Z,22.13
2022-09-10T05:03:19.274Z,20.07
2022-09-10T05:05:48.007Z,23.52
2022-09-10T05:08:15.062Z,19.65
2022-09-10T05:10:47.291Z,24.75
2022-09-10T05:13:15.068Z,23.52
2022-09-10T05:15:42.567Z,25.37
2022-09-10T05:18:10.215Z,21.30
2022-09-10T05:20:38.622Z,22.48
2022-09-10T05:23:05.473Z,23.27
2022-09-10T05:25:34.507Z,19.30
2022-09-10T05:28:01.632Z,20.60
2022-09-10T05:30:32.807Z,23.13
2022-09-10T05:33:01.055Z,22.10
2022-09-10T05:35:30.486Z,21.65
2022-09-10T05:37:58.922Z,23.63
2022-09-10T05:40:25.843Z,21.70
2022-09-10T05:42:54.301Z,21.80
2022-09-10T05:45:23.425Z,26.50
2022-09-10T05:47:51.451Z,22.55
2022-09-10T05:50:21.861Z,24.83
2022-09-10T05:52:49.622Z,20.03
2022-09-10T05:55:17.411Z,20.42
2022-09-10T05:57:44.300Z,24.30
2022-09-10T06:00:15.704Z,20.08
2022-09-10T06:02:48.977Z,20.92
2022-09-10T06:05:36.843Z,23.40
2022-09-10T06:08:08.359Z,19.60
2022-09-10T06:10:38.609Z,19.00
2022-09-10T06:13:07.177Z,17.95
2022-09-10T06:15:35.683Z,19.90
2022-09-10T06:18:02.943Z,18.60
2022-09-10T06:20:31.043Z,15.95
2022-09-10T06:22:58.201Z,20.95
2022-09-10T06:25:25.051Z,19.60
2022-09-10T06:27:52.053Z,17.35
2022-09-10T06:30:20.767Z,21.43
2022-09-10T06:32:48.250Z,19.73
2022-09-10T06:35:15.689Z,21.73
2022-09-10T06:37:43.358Z,20.95
2022-09-10T06:40:12.080Z,16.52
2022-09-10T06:42:40.854Z,19.00
2022-09-10T06:45:18.524Z,20.70
2022-09-10T06:51:02.003Z,19.58
2022-09-10T06:53:33.673Z,18.00
2022-09-10T06:56:03.634Z,19.27
2022-09-10T06:58:36.320Z,17.77
2022-09-10T07:01:11.890Z,15.48
2022-09-10T07:03:39.394Z,14.68
2022-09-10T07:06:08.315Z,17.80
2022-09-10T07:08:35.303Z,15.00
2022-09-10T07:11:05.141Z,19.10
2022-09-10T07:13:32.119Z,15.90
2022-09-10T07:16:03.122Z,17.17
2022-09-10T07:18:31.050Z,14.13
2022-09-10T07:21:19.432Z,14.90
2022-09-10T07:23:51.920Z,13.35
2022-09-10T07:26:19.755Z,14.68
2022-09-10T07:28:52.351Z,15.45
2022-09-10T07:31:22.287Z,13.25
2022-09-10T07:33:50.865Z,12.07
2022-09-10T07:36:18.479Z,13.43
2022-09-10T07:38:47.966Z,13.02
2022-09-10T07:41:15.483Z,15.35
2022-09-10T07:43:44.343Z,10.82
2022-09-10T07:46:22.616Z,13.07
2022-09-10T07:48:58.939Z,14.27
2022-09-10T07:51:27.738Z,9.45
2022-09-10T07:53:58.558Z,12.88
2022-09-10T07:56:34.761Z,13.52
2022-09-10T07:59:03.892Z,13.60
2022-09-10T08:01:37.865Z,11.30
2022-09-10T08:04:06.254Z,16.08
2022-09-10T08:06:36.004Z,15.20
2022-09-10T08:09:07.116Z,23.65
2022-09-10T08:11:36.281Z,11.13
2022-09-10T08:14:03.815Z,18.05
2022-09-10T08:16:33.118Z,15.38
2022-09-10T08:19:06.077Z,8.15
2022-09-10T08:21:34.796Z,8.05
2022-09-10T08:24:02.667Z,10.73
2022-09-10T08:26:33.661Z,8.23
2022-09-10T08:29:02.892Z,8.73
2022-09-10T08:31:29.721Z,8.07
2022-09-10T08:34:05.571Z,6.40
2022-09-10T08:36:35.096Z,6.63
2022-09-10T08:39:06.287Z,7.05
2022-09-10T08:41:41.210Z,8.50
2022-09-10T08:44:27.750Z,5.95
2022-09-10T08:47:09.976Z,4.55
2022-09-10T08:49:48.876Z,5.45
2022-09-10T08:52:38.283Z,7.15
2022-09-10T08:55:17.258Z,9.82
2022-09-10T08:58:00.345Z,7.82
2022-09-10T09:00:34.840Z,7.07
2022-09-10T09:03:33.938Z,11.75
2022-09-10T09:06:02.805Z,9.70
2022-09-10T09:08:50.314Z,10.95
2022-09-10T09:11:34.405Z,7.50
2022-09-10T09:14:16.323Z,9.85
2022-09-10T09:17:06.224Z,9.15
2022-09-10T09:19:45.464Z,8.35
2022-09-10T09:22:19.408Z,7.72
2022-09-10T09:25:00.719Z,8.52
2022-09-10T09:27:32.151Z,9.23
2022-09-10T09:30:04.656Z,8.48
2022-09-10T09:32:39.842Z,7.82
2022-09-10T09:35:34.735Z,13.02
2022-09-10T09:38:06.954Z,6.55
2022-09-10T09:40:38.039Z,9.40
2022-09-10T09:43:27.642Z,9.88
2022-09-10T09:45:54.848Z,7.88
2022-09-10T09:48:23.772Z,5.80
2022-09-10T09:50:59.376Z,6.45
2022-09-10T09:53:28.671Z,6.40
2022-09-10T09:55:59.210Z,6.28
2022-09-10T09:58:27.267Z,5.05
2022-09-10T10:00:55.073Z,3.83
2022-09-10T10:03:28.476Z,2.72
2022-09-10T10:06:08.301Z,5.10
2022-09-10T10:08:41.479Z,4.38
2022-09-10T10:11:09.232Z,3.78
2022-09-10T10:13:39.249Z,5.50
2022-09-10T10:16:36.494Z,5.22
2022-09-10T10:19:04.794Z,4.07
2022-09-10T10:21:34.637Z,7.25
2022-09-10T10:24:01.903Z,6.15
2022-09-10T10:26:34.747Z,5.28
2022-09-10T10:29:18.500Z,3.85
2022-09-10T10:31:48.098Z,5.32
2022-09-10T10:34:37.839Z,4.43
2022-09-10T10:37:16.070Z,5.82
2022-09-10T10:40:01.184Z,5.97
2022-09-10T10:43:10.692Z,5.88
2022-09-10T10:45:56.081Z,5.32
2022-09-10T10:48:26.114Z,4.20
2022-09-10T10:51:03.225Z,4.32
2022-09-10T10:53:48.703Z,6.72
2022-09-10T10:56:32.712Z,4.22
2022-09-10T10:59:07.206Z,3.38
2022-09-10T11:01:42.260Z,5.15
2022-09-10T11:04:35.698Z,4.60
2022-09-10T11:07:32.813Z,3.72
2022-09-10T11:10:11.748Z,3.70
2022-09-10T11:13:07.139Z,4.13
2022-09-10T11:16:01.318Z,4.35
2022-09-10T11:18:38.453Z,4.97
2022-09-10T11:21:20.171Z,5.70
2022-09-10T11:24:03.387Z,6.22
2022-09-10T11:26:41.673Z,6.78
2022-09-10T11:29:11.561Z,6.85
2022-09-10T11:31:46.015Z,5.78
2022-09-10T11:34:28.517Z,4.13
2022-09-10T11:37:03.717Z,3.65
2022-09-10T11:39:40.483Z,3.13
2022-09-10T11:42:18.774Z,3.58
2022-09-10T11:45:19.589Z,6.05
2022-09-10T11:47:57.317Z,5.30
2022-09-10T11:50:34.288Z,3.30
2022-09-10T11:53:02.350Z,7.80
2022-09-10T11:56:03.588Z,3.47
2022-09-10T11:58:49.057Z,4.40
2022-09-10T12:01:54.090Z,4.38
2022-09-10T12:05:02.418Z,3.45
2022-09-10T12:08:20.174Z,3.15
2022-09-10T12:11:20.597Z,2.47
2022-09-10T12:13:50.081Z,2.92
2022-09-10T12:16:29.491Z,2.35
2022-09-10T12:18:58.520Z,3.45
2022-09-10T12:21:49.843Z,3.08
2022-09-10T12:24:29.379Z,2.35
2022-09-10T12:26:57.355Z,3.08
2022-09-10T12:29:37.440Z,2.95
2022-09-10T12:32:29.513Z,2.88
2022-09-10T12:35:38.036Z,2.90
2022-09-10T12:38:42.978Z,2.63
2022-09-10T12:41:14.480Z,2.10
2022-09-10T12:43:41.547Z,3.83
2022-09-10T12:46:14.976Z,2.97
2022-09-10T12:48:51.290Z,3.95
2022-09-10T12:51:18.036Z,2.58
2022-09-10T12:54:03.679Z,2.67
2022-09-10T12:56:45.708Z,2.35
2022-09-10T12:59:52.509Z,2.47
2022-09-10T13:02:36.589Z,1.60
2022-09-10T13:05:07.452Z,2.22
2022-09-10T13:07:41.687Z,3.08
2022-09-10T13:10:16.433Z,2.42
2022-09-10T13:12:49.430Z,2.38
2022-09-10T13:15:29.865Z,4.28
2022-09-10T13:17:56.729Z,4.55
2022-09-10T13:20:26.644Z,2.70
2022-09-10T13:23:04.020Z,2.50
2022-09-10T13:25:36.664Z,2.05
2022-09-10T13:28:35.645Z,3.45
2022-09-10T13:31:18.617Z,2.80
2022-09-10T13:33:54.351Z,2.53
2022-09-10T13:36:30.178Z,2.67
2022-09-10T13:39:35.361Z,5.03
2022-09-10T13:42:46.498Z,2.97
2022-09-10T13:45:33.826Z,5.00
2022-09-10T13:48:14.937Z,4.47
2022-09-10T13:51:08.414Z,2.63
2022-09-10T13:53:43.803Z,2.72
2022-09-10T13:56:38.798Z,3.53
2022-09-10T13:59:07.459Z,3.58
2022-09-10T14:01:53.820Z,4.30
2022-09-10T14:04:44.954Z,3.55
2022-09-10T14:07:22.780Z,2.88
2022-09-10T14:10:00.245Z,3.08
2022-09-10T14:12:29.906Z,2.75
2022-09-10T14:15:01.527Z,2.30
2022-09-10T14:17:43.085Z,2.85
2022-09-10T14:20:31.581Z,2.53
2022-09-10T14:23:10.537Z,4.63
2022-09-10T14:25:40.428Z,5.35
2022-09-10T14:28:16.191Z,3.90
2022-09-10T14:30:50.916Z,3.35
2022-09-10T14:33:31.608Z,4.10
2022-09-10T14:36:12.433Z,5.60
2022-09-10T14:38:42.135Z,3.58
2022-09-10T14:41:24.992Z,3.45
2022-09-10T14:44:24.040Z,2.67
2022-09-10T14:46:59.559Z,3.00
2022-09-10T14:49:30.731Z,3.90
2022-09-10T14:51:58.868Z,3.72
2022-09-10T14:54:27.434Z,4.57
2022-09-10T14:56:56.540Z,4.32
2022-09-10T14:59:32.255Z,3.65
2022-09-10T15:02:09.484Z,3.75
2022-09-10T15:04:46.186Z,4.03
2022-09-10T15:07:13.680Z,4.05
2022-09-10T15:09:41.155Z,5.65
2022-09-10T15:12:18.342Z,3.22
2022-09-10T15:14:45.089Z,5.18
2022-09-10T15:17:17.639Z,3.40
2022-09-10T15:19:46.859Z,5.80
2022-09-10T15:22:21.556Z,3.85
2022-09-10T15:25:08.625Z,4.00
2022-09-10T15:27:36.449Z,5.88
2022-09-10T15:30:03.422Z,5.20
2022-09-10T15:32:30.733Z,4.30
2022-09-10T15:34:57.632Z,6.40
2022-09-10T15:37:24.797Z,4.30
2022-09-10T15:39:52.758Z,4.70
2022-09-10T15:42:19.563Z,6.65
2022-09-10T15:44:46.535Z,3.17
2022-09-10T15:47:13.278Z,5.43
2022-09-10T15:49:40.077Z,6.03
2022-09-10T15:52:06.839Z,6.28
2022-09-10T15:54:34.413Z,5.10
2022-09-10T15:57:01.163Z,6.95
2022-09-10T15:59:28.802Z,5.47
2022-09-10T16:01:58.523Z,4.40
2022-09-10T16:04:26.060Z,4.45
2022-09-10T16:06:54.099Z,4.40
2022-09-10T16:09:20.884Z,6.80
2022-09-10T16:11:48.450Z,5.53
2022-09-10T16:14:18.723Z,5.45
2022-09-10T16:16:45.752Z,5.45
2022-09-10T16:19:13.306Z,6.47
2022-09-10T16:21:45.680Z,4.95
2022-09-10T16:24:12.821Z,6.32
2022-09-10T16:26:41.964Z,5.57
2022-09-10T16:29:19.530Z,6.30
2022-09-10T16:31:47.164Z,6.97
2022-09-10T16:34:19.852Z,4.82
2022-09-10T16:36:48.989Z,3.42
2022-09-10T16:39:16.699Z,4.55
2022-09-10T16:41:46.221Z,3.92
2022-09-10T16:44:15.758Z,5.63
2022-09-10T16:46:42.916Z,4.57
2022-09-10T16:49:15.155Z,4.28
2022-09-10T16:51:44.669Z,5.07
2022-09-10T16:54:14.010Z,4.93
2022-09-10T16:56:43.510Z,5.30
2022-09-10T16:59:16.167Z,5.72
2022-09-10T17:02:01.596Z,6.72
2022-09-10T17:04:44.454Z,4.32
2022-09-10T17:07:15.424Z,5.15
2022-09-10T17:09:55.427Z,5.10
2022-09-10T17:12:25.369Z,5.82
2022-09-10T17:14:52.330Z,5.05
2022-09-10T17:17:20.405Z,5.65
2022-09-10T17:19:47.452Z,6.07
2022-09-10T17:22:14.609Z,4.75
2022-09-10T17:24:42.146Z,6.65
2022-09-10T17:27:24.798Z,4.35
2022-09-10T17:29:59.643Z,5.57
2022-09-10T17:32:31.078Z,5.15
2022-09-10T17:35:00.377Z,5.15
2022-09-10T17:37:31.765Z,8.15
2022-09-10T17:40:03.644Z,6.15
2022-09-10T17:42:32.084Z,5.82
2022-09-10T17:45:01.098Z,5.50
2022-09-10T17:47:29.346Z,7.15
2022-09-10T17:49:56.402Z,5.90
2022-09-10T17:52:23.236Z,6.28
2022-09-10T17:54:52.250Z,7.18
2022-09-10T17:57:19.694Z,6.38
2022-09-10T17:59:46.549Z,6.50
2022-09-10T18:02:17.167Z,4.80
2022-09-10T18:04:48.153Z,7.35
2022-09-10T18:07:15.542Z,5.30
2022-09-10T18:09:42.854Z,6.25
2022-09-10T18:12:10.605Z,5.35
2022-09-10T18:14:38.500Z,7.50
2022-09-10T18:17:05.415Z,5.93
2022-09-10T18:19:33.174Z,6.40
2022-09-10T18:22:01.474Z,7.00
2022-09-10T18:24:28.595Z,6.80
2022-09-10T18:26:56.397Z,7.93
2022-09-10T18:29:29.979Z,8.45
2022-09-10T18:31:59.193Z,7.75
2022-09-10T18:34:28.444Z,8.35
2022-09-10T18:36:57.843Z,6.25
2022-09-10T18:39:26.851Z,7.97
2022-09-10T18:41:54.809Z,7.30
2022-09-10T18:44:27.555Z,6.80
2022-09-10T18:46:56.006Z,8.85
2022-09-10T18:49:24.768Z,8.13
2022-09-10T18:51:53.377Z,8.13
2022-09-10T18:54:22.109Z,9.32
2022-09-10T18:56:50.201Z,6.35
2022-09-10T18:59:23.045Z,8.70
2022-09-10T19:01:52.062Z,6.47
2022-09-10T19:04:24.383Z,8.80
2022-09-10T19:06:51.949Z,8.75
2022-09-10T19:09:27.350Z,7.18
2022-09-10T19:11:56.039Z,8.20
2022-09-10T19:14:34.534Z,7.90
2022-09-10T19:17:02.752Z,8.25
2022-09-10T19:19:31.959Z,10.68
2022-09-10T19:22:02.945Z,11.07
2022-09-10T19:24:53.373Z,7.65
2022-09-10T19:27:17.210Z,9.65
2022-09-10T19:29:44.978Z,9.70
2022-09-10T19:32:13.283Z,7.63
2022-09-10T19:34:40.450Z,9.50
2022-09-10T19:37:07.947Z,9.27
2022-09-10T19:39:35.073Z,12.57
2022-09-10T19:42:01.938Z,9.13
2022-09-10T19:44:28.784Z,10.05
2022-09-10T19:46:56.197Z,9.27
2022-09-10T19:49:22.958Z,9.77
2022-09-10T19:51:49.914Z,11.38
2022-09-10T19:54:16.693Z,9.70
2022-09-10T19:56:45.097Z,10.48
2022-09-10T19:59:17.139Z,10.25
2022-09-10T20:01:45.882Z,8.90
2022-09-10T20:04:14.182Z,9.70
2022-09-10T20:06:46.073Z,8.88
2022-09-10T20:09:14.137Z,8.57
2022-09-10T20:11:41.069Z,9.45
2022-09-10T20:14:14.329Z,15.15
2022-09-10T20:16:44.139Z,9.43
2022-09-10T20:19:13.735Z,10.25
2022-09-10T20:21:42.448Z,10.73
2022-09-10T20:24:09.792Z,7.57
2022-09-10T20:26:38.663Z,10.85
2022-09-10T20:29:12.387Z,10.88
2022-09-10T20:31:41.394Z,9.57
2022-09-10T20:34:14.435Z,11.57
2022-09-10T20:36:45.180Z,9.90
2022-09-10T20:39:15.199Z,11.75
2022-09-10T20:41:43.009Z,10.05
2022-09-10T20:44:13.575Z,9.68
2022-09-10T20:46:41.561Z,11.80
2022-09-10T20:49:10.599Z,9.10
2022-09-10T20:51:41.538Z,12.63
2022-09-10T20:54:11.877Z,10.48
2022-09-10T20:56:38.934Z,11.35
2022-09-10T20:59:05.679Z,13.02
2022-09-10T21:01:32.901Z,11.55
2022-09-10T21:04:01.318Z,12.25
2022-09-10T21:06:31.122Z,10.00
2022-09-10T21:08:58.671Z,12.40
2022-09-10T21:11:28.526Z,9.38
2022-09-10T21:13:59.431Z,13.43
2022-09-10T21:16:38.758Z,13.20
2022-09-10T21:19:09.483Z,12.98
2022-09-10T21:21:39.305Z,11.40
2022-09-10T21:24:17.737Z,12.57
2022-09-10T21:26:45.211Z,13.93
2022-09-10T21:29:17.242Z,13.45
2022-09-10T21:31:45.323Z,11.32
2022-09-10T21:34:12.884Z,14.98
2022-09-10T21:36:43.822Z,14.27
2022-09-10T21:39:16.590Z,13.80
2022-09-10T21:41:48.796Z,17.60
2022-09-10T21:44:23.111Z,13.75
2022-09-10T21:46:50.897Z,15.13
2022-09-10T21:49:19.049Z,14.38
2022-09-10T21:51:46.221Z,15.00
2022-09-10T21:54:21.309Z,15.38
2022-09-10T21:56:49.450Z,15.43
2022-09-10T21:59:16.902Z,15.32
2022-09-10T22:01:45.298Z,16.38
2022-09-10T22:04:13.506Z,18.85
2022-09-10T22:06:40.476Z,18.20
2022-09-10T22:09:09.992Z,18.35
2022-09-10T22:11:40.589Z,14.50
2022-09-10T22:14:20.887Z,16.58
2022-09-10T22:16:47.987Z,17.98
2022-09-10T22:19:18.210Z,18.77
2022-09-10T22:21:45.481Z,17.05
2022-09-10T22:24:13.519Z,18.80
2022-09-10T22:26:43.280Z,20.08
2022-09-10T22:29:12.129Z,18.80
2022-09-10T22:31:38.984Z,17.95
2022-09-10T22:34:09.736Z,17.90
2022-09-10T22:36:38.545Z,17.90
2022-09-10T22:39:08.024Z,18.23
2022-09-10T22:41:36.251Z,22.08
2022-09-10T22:44:03.834Z,21.08
2022-09-10T22:46:31.096Z,19.17
2022-09-10T22:48:58.174Z,17.30
2022-09-10T22:51:30.499Z,20.20
2022-09-10T22:53:58.291Z,21.63
2022-09-10T22:56:26.893Z,20.20
2022-09-10T22:58:55.795Z,19.77
2022-09-10T23:01:31.838Z,18.20
2022-09-10T23:04:00.231Z,21.60
2022-09-10T23:06:29.644Z,20.70
2022-09-10T23:09:08.294Z,20.58
2022-09-10T23:11:36.889Z,20.83
2022-09-10T23:14:16.617Z,22.52
2022-09-10T23:16:44.779Z,22.08
2022-09-10T23:19:14.114Z,18.38
2022-09-10T23:21:46.774Z,23.13
2022-09-10T23:24:15.817Z,23.30
2022-09-10T23:26:43.010Z,18.38
2022-09-10T23:29:09.770Z,22.63
2022-09-10T23:31:38.044Z,29.65
2022-09-10T23:34:13.950Z,30.38
2022-09-10T23:36:43.213Z,24.85
2022-09-10T23:39:16.327Z,26.20
2022-09-10T23:41:43.235Z,25.50
2022-09-10T23:44:10.380Z,27.20
2022-09-10T23:46:37.515Z,25.92
2022-09-10T23:49:04.982Z,25.40
2022-09-10T23:51:31.969Z,24.90
2022-09-10T23:53:59.471Z,22.63
2022-09-10T23:56:28.303Z,23.05
2022-09-10T23:58:56.056Z,23.17
